aviador You're here:

LFKS Decoded Metar

SOLENZARA in CORSE ISL.
Report Time2017-11-24 20:00:00
UTC Time2017-11-24 20:27:07
Flight Rules vfr VFR
Wind270° at 04 kt
W.Decomp.*RWY 18: 0.1 kt HW 4.0 kt RCW
W.Rank270° ranks 2
Current wind is below 270° avg. (5.6)
Visibility9999 m
Phenomena:N/A
Clouds:N/A
Expected CloudBase > 1,200 ft AGL from Temp-Dew spread
CeilingNone
Temp13°C (ISA -2)
Dew Point10°C (82% RH)
AAT11.6°C
QNH1021 hPa
Density Alt-253 ft
Elevation72 ft
Report Wrong Elevation
Raw Report
METAR LFKS 242000Z AUTO 27004KT CAVOK 13/10 Q1021=

Extra information for LFKS:More info

Metar Taf Metar & Taf Last 4 Metars F.Rules Stats Wind Profile Meteogram Temp Stats Airport Information Weather charts Add Link Nearby VenuesMetar ALERT Operation Metar Decoded Social comments